This is the latest recevied weather packets stored in our database for station/object SP2CDN-10. If no packets are shown the sender has not sent any weather packets the latest 10 day(s).
| Time | Temp. | Humidity | Pressure | Rain* | Wind** | Luminosity | Snow |
|---|---|---|---|---|---|---|---|
| 1777650298 | 30° C | 17% | 1023.3 hPa | - | - | - | - |
| 1777623828 | 16.67° C | 37% | 1026 hPa | - | - | - | - |
| 1777621547 | 15.56° C | 39% | 1025.9 hPa | - | - | - | - |
| 1777619265 | 13.89° C | 43% | 1025.9 hPa | - | - | - | - |
| 1777616983 | 12.22° C | 47% | 1025.8 hPa | - | - | - | - |
| 1777614702 | 10° C | 51% | 1025.9 hPa | - | - | - | - |
| 1777612420 | 7.78° C | 58% | 1025.7 hPa | - | - | - | - |
| 1777610139 | 5.56° C | 66% | 1025.6 hPa | - | - | - | - |
| 1777607857 | 4.44° C | 71% | 1025.6 hPa | - | - | - | - |
| 1777605576 | 3.89° C | 72% | 1025.6 hPa | - | - | - | - |
| 1777603294 | 4.44° C | 72% | 1025.8 hPa | - | - | - | - |
| 1777601012 | 4.44° C | 69% | 1025.5 hPa | - | - | - | - |
| 1777598730 | 5.56° C | 62% | 1025.5 hPa | - | - | - | - |
| 1777596449 | 6.11° C | 60% | 1025.4 hPa | - | - | - | - |
| 1777594167 | 7.22° C | 58% | 1025.5 hPa | - | - | - | - |
| 1777591886 | 7.22° C | 59% | 1025.6 hPa | - | - | - | - |
| 1777589604 | 8.33° C | 56% | 1025.6 hPa | - | - | - | - |
| 1777587323 | 9.44° C | 50% | 1025.6 hPa | - | - | - | - |
| 1777585041 | 9.44° C | 53% | 1025.4 hPa | - | - | - | - |
| 1777582760 | 10° C | 55% | 1025.4 hPa | - | - | - | - |
| 1777580478 | 11.11° C | 50% | 1025.4 hPa | - | - | - | - |
| 1777578197 | 12.22° C | 46% | 1025.6 hPa | - | - | - | - |
| 1777575915 | 13.33° C | 43% | 1025.5 hPa | - | - | - | - |
| 1777573637 | 13.33° C | 42% | 1025.4 hPa | - | - | - | - |
| 1777571352 | 14.44° C | 40% | 1025.3 hPa | - | - | - | - |
* Rain since midnight (hover to see other rain measurements)
** Current wind speed in m/s (hover to see current wind gust speed)